createdAt,value
2022-10-17T00:00:50.979Z,56.75
2022-10-17T00:03:18.505Z,57.14
2022-10-17T00:05:47.472Z,56.22
2022-10-17T00:08:17.173Z,56.61
2022-10-17T00:10:44.475Z,56.63
2022-10-17T00:13:12.655Z,57.26
2022-10-17T00:15:44.885Z,57.14
2022-10-17T00:18:12.073Z,56.96
2022-10-17T00:20:39.190Z,57.35
2022-10-17T00:23:06.218Z,57.12
2022-10-17T00:25:33.271Z,56.90
2022-10-17T00:28:00.397Z,57.57
2022-10-17T00:30:27.473Z,57.34
2022-10-17T00:32:54.553Z,57.33
2022-10-17T00:35:21.610Z,58.10
2022-10-17T00:37:48.917Z,56.97
2022-10-17T00:40:17.976Z,57.72
2022-10-17T00:42:47.887Z,56.89
2022-10-17T00:45:23.657Z,57.05
2022-10-17T00:48:00.334Z,56.81
2022-10-17T00:50:28.401Z,57.04
2022-10-17T00:53:01.399Z,56.86
2022-10-17T00:55:32.102Z,57.21
2022-10-17T00:58:02.726Z,57.65
2022-10-17T01:00:29.958Z,57.96
2022-10-17T01:02:58.606Z,58.04
2022-10-17T01:05:26.033Z,57.56
2022-10-17T01:07:54.192Z,57.63
2022-10-17T01:10:24.163Z,57.67
2022-10-17T01:13:00.117Z,57.10
2022-10-17T01:15:55.481Z,57.20
2022-10-17T01:18:37.550Z,57.70
2022-10-17T01:22:09.575Z,56.76
2022-10-17T01:24:52.436Z,57.70
2022-10-17T01:27:41.451Z,57.51
2022-10-17T01:30:11.550Z,57.63
2022-10-17T01:32:47.589Z,57.99
2022-10-17T01:35:27.994Z,58.09
2022-10-17T01:38:41.714Z,57.84
2022-10-17T01:41:28.955Z,57.34
2022-10-17T01:44:37.194Z,57.64
2022-10-17T01:47:09.419Z,58.15
2022-10-17T01:49:38.835Z,58.01
2022-10-17T01:52:13.655Z,58.21
2022-10-17T01:54:45.630Z,58.70
2022-10-17T01:57:28.997Z,58.02
2022-10-17T01:59:57.363Z,57.71
2022-10-17T02:02:27.056Z,57.43
2022-10-17T02:04:57.437Z,57.82
2022-10-17T02:07:24.581Z,57.67
2022-10-17T02:09:53.165Z,58.24
2022-10-17T02:12:38.984Z,58.10
2022-10-17T02:15:43.158Z,58.46
2022-10-17T02:18:30.438Z,57.79
2022-10-17T02:21:03.912Z,57.66
2022-10-17T02:23:36.610Z,58.25
2022-10-17T02:26:06.380Z,57.40
2022-10-17T02:28:39.504Z,58.33
2022-10-17T02:31:13.912Z,59.36
2022-10-17T02:33:58.367Z,58.79
2022-10-17T02:36:48.217Z,60.44
2022-10-17T02:39:17.014Z,59.92
2022-10-17T02:41:46.149Z,60.87
2022-10-17T02:44:13.634Z,60.76
2022-10-17T02:46:42.693Z,61.00
2022-10-17T02:49:25.116Z,60.88
2022-10-17T02:52:08.379Z,60.74
2022-10-17T02:55:04.897Z,61.35
2022-10-17T02:57:39.975Z,62.24
2022-10-17T03:00:11.127Z,62.27
2022-10-17T03:02:44.070Z,61.48
2022-10-17T03:05:12.922Z,61.72
2022-10-17T03:07:39.998Z,61.87
2022-10-17T03:10:07.711Z,62.27
2022-10-17T03:12:34.899Z,61.68
2022-10-17T03:15:02.543Z,61.07
2022-10-17T03:17:31.170Z,60.50
2022-10-17T03:19:59.299Z,60.09
2022-10-17T03:22:26.553Z,59.73
2022-10-17T03:24:53.934Z,60.79
2022-10-17T03:27:20.993Z,60.05
2022-10-17T03:29:48.185Z,59.58
2022-10-17T03:32:16.463Z,59.94
2022-10-17T03:34:43.818Z,59.58
2022-10-17T03:37:10.886Z,60.34
2022-10-17T03:39:39.691Z,59.64
2022-10-17T03:42:06.901Z,59.61
2022-10-17T03:44:34.030Z,59.99
2022-10-17T03:47:01.153Z,59.70
2022-10-17T03:49:28.269Z,60.27
2022-10-17T03:51:55.376Z,58.96
2022-10-17T03:54:22.457Z,59.85
2022-10-17T03:56:49.571Z,59.47
2022-10-17T03:59:19.245Z,59.77
2022-10-17T04:01:56.289Z,59.45
2022-10-17T04:04:23.411Z,59.22
2022-10-17T04:06:50.678Z,59.10
2022-10-17T04:09:17.981Z,59.21
2022-10-17T04:12:00.384Z,59.36
2022-10-17T04:14:27.638Z,59.60
2022-10-17T04:16:55.088Z,59.42
2022-10-17T04:19:22.157Z,59.18
2022-10-17T04:21:50.184Z,59.19
2022-10-17T04:24:17.997Z,60.25
2022-10-17T04:26:51.320Z,59.29
2022-10-17T04:29:19.751Z,59.58
2022-10-17T04:31:51.087Z,60.02
2022-10-17T04:34:22.665Z,59.54
2022-10-17T04:36:49.808Z,59.63
2022-10-17T04:39:17.111Z,60.99
2022-10-17T04:41:45.532Z,60.19
2022-10-17T04:44:12.758Z,58.76
2022-10-17T04:46:44.416Z,59.30
2022-10-17T04:49:11.473Z,59.77
2022-10-17T04:51:41.491Z,60.32
2022-10-17T04:54:21.396Z,59.98
2022-10-17T04:56:53.921Z,60.00
2022-10-17T04:59:21.017Z,60.04
2022-10-17T05:01:55.849Z,59.42
2022-10-17T05:04:24.839Z,60.52
2022-10-17T05:06:53.203Z,59.77
2022-10-17T05:09:40.508Z,59.16
2022-10-17T05:12:10.267Z,58.93
2022-10-17T05:14:40.423Z,59.59
2022-10-17T05:17:07.899Z,59.05
2022-10-17T05:19:35.631Z,57.80
2022-10-17T05:22:02.794Z,57.86
2022-10-17T05:24:29.896Z,59.11
2022-10-17T05:26:56.950Z,58.91
2022-10-17T05:29:24.134Z,58.44
2022-10-17T05:31:56.772Z,58.50
2022-10-17T05:34:25.158Z,58.41
2022-10-17T05:36:52.317Z,59.35
2022-10-17T05:39:23.390Z,58.80
2022-10-17T05:41:52.543Z,58.33
2022-10-17T05:44:19.846Z,57.86
2022-10-17T05:46:53.379Z,58.37
2022-10-17T05:49:33.029Z,59.16
2022-10-17T05:52:07.780Z,57.15
2022-10-17T05:54:45.608Z,56.94
2022-10-17T05:57:13.084Z,56.98
2022-10-17T05:59:41.285Z,57.20
2022-10-17T06:02:13.326Z,57.01
2022-10-17T06:04:45.604Z,57.09
2022-10-17T06:07:13.962Z,57.47
2022-10-17T06:09:43.206Z,56.45
2022-10-17T06:12:11.122Z,56.22
2022-10-17T06:14:38.240Z,56.37
2022-10-17T06:17:07.389Z,56.09
2022-10-17T06:19:36.811Z,55.92
2022-10-17T06:22:04.083Z,55.82
2022-10-17T06:24:32.216Z,56.35
2022-10-17T06:27:05.863Z,56.11
2022-10-17T06:29:36.946Z,55.94
2022-10-17T06:32:04.175Z,56.01
2022-10-17T06:34:32.581Z,56.43
2022-10-17T06:37:00.680Z,56.43
2022-10-17T06:39:33.821Z,56.11
2022-10-17T06:42:06.286Z,56.71
2022-10-17T06:44:44.954Z,56.99
2022-10-17T06:47:32.624Z,57.22
2022-10-17T06:50:05.890Z,57.24
2022-10-17T06:52:42.719Z,56.98
2022-10-17T06:55:28.336Z,56.58
2022-10-17T06:58:29.210Z,56.86
2022-10-17T07:01:11.658Z,55.31
2022-10-17T07:03:41.051Z,55.21
2022-10-17T07:06:08.408Z,55.14
2022-10-17T07:08:35.619Z,55.35
2022-10-17T07:11:11.666Z,55.64
2022-10-17T07:13:39.400Z,55.53
2022-10-17T07:16:08.045Z,55.20
2022-10-17T07:18:36.869Z,55.25
2022-10-17T07:21:04.139Z,54.79
2022-10-17T07:23:32.179Z,53.86
2022-10-17T07:26:07.341Z,54.24
2022-10-17T07:28:37.042Z,54.43
2022-10-17T07:31:15.062Z,54.18
2022-10-17T07:33:43.144Z,55.31
2022-10-17T07:36:11.399Z,55.39
2022-10-17T07:38:39.283Z,54.65
2022-10-17T07:41:08.621Z,55.02
2022-10-17T07:43:36.933Z,54.99
2022-10-17T07:46:05.974Z,55.14
2022-10-17T07:48:35.034Z,54.65
2022-10-17T07:51:04.231Z,55.51
2022-10-17T07:53:31.621Z,56.40
2022-10-17T07:55:58.831Z,56.00
2022-10-17T07:58:26.021Z,56.22
2022-10-17T08:00:53.173Z,55.44
2022-10-17T08:03:20.386Z,56.31
2022-10-17T08:05:47.515Z,56.37
2022-10-17T08:08:14.702Z,56.69
2022-10-17T08:10:43.367Z,56.27
2022-10-17T08:13:10.456Z,57.14
2022-10-17T08:15:38.913Z,59.83
2022-10-17T08:18:05.947Z,60.50
2022-10-17T08:20:33.120Z,61.77
2022-10-17T08:23:00.259Z,62.19
2022-10-17T08:25:27.314Z,66.97
2022-10-17T08:27:54.392Z,68.65
2022-10-17T08:30:21.520Z,70.94
2022-10-17T08:32:48.654Z,69.49
2022-10-17T08:35:15.796Z,67.74
2022-10-17T08:37:42.995Z,68.34
2022-10-17T08:40:27.659Z,69.39
2022-10-17T08:43:15.683Z,67.59
2022-10-17T08:45:47.007Z,68.97
2022-10-17T08:48:17.998Z,70.42
2022-10-17T08:50:59.427Z,67.91
2022-10-17T08:53:41.016Z,68.61
2022-10-17T08:56:20.022Z,66.88
2022-10-17T08:58:52.224Z,67.42
2022-10-17T09:01:50.031Z,67.23
2022-10-17T09:04:46.877Z,65.86
2022-10-17T09:07:20.186Z,65.76
2022-10-17T09:10:05.876Z,66.47
2022-10-17T09:12:44.243Z,66.34
2022-10-17T09:15:40.277Z,65.43
2022-10-17T09:18:21.194Z,66.43
2022-10-17T09:20:54.191Z,69.67
2022-10-17T09:23:30.462Z,72.28
2022-10-17T09:26:00.115Z,73.20
2022-10-17T09:28:37.714Z,76.37
2022-10-17T09:31:11.486Z,78.23
2022-10-17T09:33:54.194Z,79.69
2022-10-17T09:36:30.402Z,77.77
2022-10-17T09:38:59.890Z,80.41
2022-10-17T09:41:50.274Z,81.57
2022-10-17T09:44:24.731Z,83.61
2022-10-17T09:47:32.226Z,83.59
2022-10-17T09:49:59.319Z,84.62
2022-10-17T09:52:30.806Z,83.37
2022-10-17T09:55:03.763Z,82.82
2022-10-17T09:57:53.517Z,82.84
2022-10-17T10:00:24.280Z,83.62
2022-10-17T10:02:51.439Z,82.95
2022-10-17T10:05:20.609Z,83.49
2022-10-17T10:08:06.406Z,83.13
2022-10-17T10:10:34.139Z,83.33
2022-10-17T10:13:18.431Z,82.76
2022-10-17T10:15:47.579Z,82.42
2022-10-17T10:18:26.996Z,82.23
2022-10-17T10:21:10.626Z,82.56
2022-10-17T10:23:40.488Z,82.59
2022-10-17T10:26:29.914Z,82.38
2022-10-17T10:29:02.223Z,82.52
2022-10-17T10:31:33.724Z,82.84
2022-10-17T10:34:12.700Z,82.38
2022-10-17T10:36:55.360Z,81.76
2022-10-17T10:39:35.175Z,82.00
2022-10-17T10:42:05.632Z,82.26
2022-10-17T10:44:34.055Z,80.83
2022-10-17T10:47:23.786Z,81.39
2022-10-17T10:49:53.020Z,80.24
2022-10-17T10:52:29.950Z,79.18
2022-10-17T10:55:24.623Z,80.97
2022-10-17T10:57:56.982Z,81.11
2022-10-17T11:00:27.934Z,81.76
2022-10-17T11:03:15.183Z,81.28
2022-10-17T11:05:51.641Z,80.84
2022-10-17T11:08:27.191Z,80.39
2022-10-17T11:11:17.979Z,80.24
2022-10-17T11:14:13.058Z,80.00
2022-10-17T11:17:02.191Z,79.73
2022-10-17T11:19:44.358Z,80.25
2022-10-17T11:22:38.722Z,79.91
2022-10-17T11:25:22.362Z,79.93
2022-10-17T11:27:49.535Z,79.54
2022-10-17T11:30:17.631Z,80.02
2022-10-17T11:32:49.173Z,80.20
2022-10-17T11:35:38.848Z,80.15
2022-10-17T11:38:05.993Z,80.71
2022-10-17T11:40:39.303Z,81.35
2022-10-17T11:43:27.576Z,80.60
2022-10-17T11:46:03.494Z,81.59
2022-10-17T11:48:41.193Z,82.01
2022-10-17T11:54:15.455Z,81.44
2022-10-17T11:57:00.477Z,81.25
2022-10-17T11:59:54.523Z,81.43
2022-10-17T12:03:01.991Z,79.93
2022-10-17T12:05:42.263Z,81.10
2022-10-17T12:08:34.992Z,81.73
2022-10-17T12:11:28.447Z,81.31
2022-10-17T12:13:56.936Z,81.00
2022-10-17T12:16:23.973Z,81.53
2022-10-17T12:19:11.225Z,82.06
2022-10-17T12:22:03.441Z,82.25
2022-10-17T12:24:45.188Z,82.52
2022-10-17T12:27:23.612Z,81.35
2022-10-17T12:29:58.545Z,81.34
2022-10-17T12:32:30.209Z,81.95
2022-10-17T12:35:04.078Z,83.31
2022-10-17T12:37:43.335Z,83.38
2022-10-17T12:40:35.260Z,82.74
2022-10-17T12:43:28.408Z,81.95
2022-10-17T12:46:00.734Z,81.72
2022-10-17T12:48:33.890Z,81.53
2022-10-17T12:51:34.242Z,82.95
2022-10-17T12:54:15.151Z,84.34
2022-10-17T12:56:44.360Z,84.22
2022-10-17T12:59:22.485Z,83.35
2022-10-17T13:01:55.537Z,83.41
2022-10-17T13:04:23.365Z,83.04
2022-10-17T13:06:56.572Z,83.60
2022-10-17T13:09:29.791Z,84.38
2022-10-17T13:12:00.913Z,84.52
2022-10-17T13:14:29.777Z,85.44
2022-10-17T13:16:59.353Z,85.46
2022-10-17T13:19:31.810Z,86.22
2022-10-17T13:22:06.352Z,86.35
2022-10-17T13:24:40.414Z,86.28
2022-10-17T13:27:23.633Z,86.69
2022-10-17T13:29:50.830Z,86.89
2022-10-17T13:32:18.361Z,86.48
2022-10-17T13:34:45.398Z,86.32
2022-10-17T13:37:19.458Z,86.09
2022-10-17T13:39:55.603Z,86.30
2022-10-17T13:42:29.493Z,86.58
2022-10-17T13:44:58.537Z,86.50
2022-10-17T13:47:32.846Z,86.88
2022-10-17T13:50:01.028Z,87.37
2022-10-17T13:52:30.571Z,87.82
2022-10-17T13:55:17.436Z,86.58
2022-10-17T13:57:44.927Z,86.97
2022-10-17T14:00:23.180Z,86.76
2022-10-17T14:02:50.384Z,87.46
2022-10-17T14:05:20.331Z,86.74
2022-10-17T14:08:13.034Z,86.04
2022-10-17T14:10:43.483Z,84.36
2022-10-17T14:13:28.700Z,84.52
2022-10-17T14:16:00.074Z,84.86
2022-10-17T14:18:36.923Z,83.65
2022-10-17T14:24:13.031Z,82.85
2022-10-17T14:26:53.577Z,82.59
2022-10-17T14:29:24.671Z,82.60
2022-10-17T14:32:16.113Z,82.78
2022-10-17T14:34:43.267Z,82.45
2022-10-17T14:37:13.166Z,81.69
2022-10-17T14:39:40.377Z,82.04
2022-10-17T14:42:07.523Z,81.88
2022-10-17T14:44:35.982Z,82.81
2022-10-17T14:47:30.246Z,82.70
2022-10-17T14:50:03.953Z,82.09
2022-10-17T14:52:34.948Z,82.38
2022-10-17T14:55:25.586Z,81.71
2022-10-17T14:57:52.743Z,81.69
2022-10-17T15:00:21.280Z,81.94
2022-10-17T15:02:49.884Z,82.54
2022-10-17T15:05:17.455Z,82.07
2022-10-17T15:07:44.517Z,82.25
2022-10-17T15:10:34.595Z,82.71
2022-10-17T15:13:27.047Z,82.64
2022-10-17T15:15:52.157Z,83.23
2022-10-17T15:18:19.464Z,83.71
2022-10-17T15:20:46.607Z,83.94
2022-10-17T15:23:13.662Z,84.46
2022-10-17T15:25:40.920Z,84.98
2022-10-17T15:28:10.944Z,84.13
2022-10-17T15:30:38.112Z,83.68
2022-10-17T15:33:05.324Z,83.60
2022-10-17T15:35:32.559Z,84.50
2022-10-17T15:37:59.606Z,84.19
2022-10-17T15:40:29.401Z,84.52
2022-10-17T15:42:57.427Z,84.58
2022-10-17T15:45:25.129Z,85.17
2022-10-17T15:47:59.440Z,84.34
2022-10-17T15:50:29.064Z,85.00
2022-10-17T15:52:56.171Z,84.95
2022-10-17T15:55:23.428Z,84.81
2022-10-17T15:57:50.962Z,84.97
2022-10-17T16:00:22.397Z,85.35
2022-10-17T16:02:50.195Z,85.34
2022-10-17T16:05:29.296Z,85.10
2022-10-17T16:07:57.903Z,85.00
2022-10-17T16:10:26.110Z,85.02
2022-10-17T16:12:53.329Z,84.92
2022-10-17T16:15:25.841Z,84.37
2022-10-17T16:17:54.824Z,84.50
2022-10-17T16:20:23.380Z,84.66
2022-10-17T16:22:51.658Z,84.05
2022-10-17T16:25:20.831Z,83.53
2022-10-17T16:27:50.060Z,83.82
2022-10-17T16:30:17.668Z,83.35
2022-10-17T16:32:47.138Z,84.13
2022-10-17T16:35:26.167Z,84.10
2022-10-17T16:37:53.444Z,83.33
2022-10-17T16:40:20.825Z,84.24
2022-10-17T16:42:47.941Z,84.45
2022-10-17T16:45:18.674Z,83.13
2022-10-17T16:47:46.922Z,83.05
2022-10-17T16:50:14.687Z,83.25
2022-10-17T16:52:42.387Z,83.70
2022-10-17T16:55:10.085Z,83.80
2022-10-17T16:57:37.276Z,84.79
2022-10-17T17:00:06.664Z,84.02
2022-10-17T17:02:33.988Z,84.02
2022-10-17T17:05:01.221Z,83.14
2022-10-17T17:07:29.871Z,83.70
2022-10-17T17:09:57.335Z,84.54
2022-10-17T17:12:24.492Z,83.77
2022-10-17T17:14:51.646Z,84.12
2022-10-17T17:17:37.107Z,84.11
2022-10-17T17:20:07.389Z,83.77
2022-10-17T17:22:35.003Z,83.65
2022-10-17T17:25:02.206Z,83.93
2022-10-17T17:27:30.629Z,84.53
2022-10-17T17:29:59.735Z,85.27
2022-10-17T17:32:26.821Z,84.66
2022-10-17T17:34:54.517Z,85.22
2022-10-17T17:37:21.576Z,84.63
2022-10-17T17:39:48.667Z,85.19
2022-10-17T17:42:15.779Z,85.96
2022-10-17T17:44:42.880Z,85.37
2022-10-17T17:47:09.987Z,85.09
2022-10-17T17:49:37.129Z,85.04
2022-10-17T17:52:04.516Z,85.13
2022-10-17T17:54:31.710Z,85.10
2022-10-17T17:56:58.746Z,85.13
2022-10-17T17:59:25.863Z,85.21
2022-10-17T18:01:52.966Z,85.03
2022-10-17T18:04:20.177Z,85.70
2022-10-17T18:06:47.307Z,84.73
2022-10-17T18:09:14.341Z,85.40
2022-10-17T18:11:42.087Z,85.61
2022-10-17T18:14:12.514Z,85.74
2022-10-17T18:16:39.694Z,85.23
2022-10-17T18:19:09.122Z,85.91
2022-10-17T18:21:37.467Z,86.01
2022-10-17T18:24:05.219Z,86.36
2022-10-17T18:26:32.887Z,86.25
2022-10-17T18:29:00.623Z,86.00
2022-10-17T18:31:36.205Z,85.63
2022-10-17T18:34:05.299Z,85.76
2022-10-17T18:36:34.070Z,85.17
2022-10-17T18:39:01.813Z,85.13
2022-10-17T18:41:29.305Z,85.96
2022-10-17T18:43:57.257Z,85.20
2022-10-17T18:46:41.141Z,84.88
2022-10-17T18:49:10.117Z,84.54
2022-10-17T18:51:37.969Z,84.82
2022-10-17T18:54:05.379Z,84.78
2022-10-17T18:56:32.489Z,84.64
2022-10-17T18:59:00.361Z,83.95
2022-10-17T19:01:28.245Z,84.38
2022-10-17T19:03:58.357Z,84.66
2022-10-17T19:06:32.006Z,84.13
2022-10-17T19:09:01.013Z,84.36
2022-10-17T19:11:30.063Z,84.99
2022-10-17T19:13:59.924Z,85.87
2022-10-17T19:16:30.254Z,85.27
2022-10-17T19:18:59.622Z,86.26
2022-10-17T19:21:27.162Z,85.63
2022-10-17T19:23:57.221Z,85.69
2022-10-17T19:26:25.785Z,86.57
2022-10-17T19:28:53.890Z,85.43
2022-10-17T19:31:26.730Z,85.77
2022-10-17T19:33:55.795Z,85.97
2022-10-17T19:36:29.061Z,85.38
2022-10-17T19:39:00.374Z,86.04
2022-10-17T19:41:28.139Z,86.32
2022-10-17T19:43:55.213Z,86.30
2022-10-17T19:46:24.376Z,86.42
2022-10-17T19:48:52.587Z,86.90
2022-10-17T19:51:24.366Z,86.50
2022-10-17T19:53:53.128Z,87.35
2022-10-17T19:56:23.964Z,87.06
2022-10-17T19:58:51.881Z,87.59
2022-10-17T20:01:21.573Z,87.42
2022-10-17T20:03:49.253Z,88.18
2022-10-17T20:06:17.286Z,87.67
2022-10-17T20:08:44.507Z,87.58
2022-10-17T20:11:19.028Z,87.21
2022-10-17T20:13:47.888Z,87.59
2022-10-17T20:16:17.895Z,86.85
2022-10-17T20:18:44.994Z,88.40
2022-10-17T20:21:14.537Z,87.92
2022-10-17T20:23:42.226Z,87.72
2022-10-17T20:26:25.966Z,87.35
2022-10-17T20:29:03.683Z,87.76
2022-10-17T20:31:30.903Z,88.01
2022-10-17T20:33:59.593Z,87.64
2022-10-17T20:36:27.136Z,88.23
2022-10-17T20:38:55.697Z,88.22
2022-10-17T20:41:26.808Z,87.75
2022-10-17T20:43:55.383Z,88.54
2022-10-17T20:46:36.208Z,88.80
2022-10-17T20:49:07.887Z,89.04
2022-10-17T20:51:35.915Z,88.37
2022-10-17T20:54:03.950Z,88.69
2022-10-17T20:56:32.653Z,89.09
2022-10-17T20:59:10.920Z,89.50
2022-10-17T21:01:38.117Z,88.79
2022-10-17T21:04:33.207Z,89.25
2022-10-17T21:06:53.596Z,89.39
2022-10-17T21:09:21.801Z,89.32
2022-10-17T21:11:52.527Z,89.52
2022-10-17T21:14:19.739Z,90.20
2022-10-17T21:16:47.347Z,89.57
2022-10-17T21:19:15.321Z,89.17
2022-10-17T21:21:44.745Z,88.95
2022-10-17T21:24:14.345Z,89.99
2022-10-17T21:26:43.076Z,89.54
2022-10-17T21:29:12.146Z,89.80
2022-10-17T21:31:41.707Z,88.49
2022-10-17T21:34:11.499Z,88.72
2022-10-17T21:36:38.972Z,88.68
2022-10-17T21:39:09.213Z,89.51
2022-10-17T21:41:36.264Z,88.69
2022-10-17T21:44:06.778Z,88.75
2022-10-17T21:46:34.289Z,88.63
2022-10-17T21:49:01.531Z,89.43
2022-10-17T21:51:28.779Z,88.74
2022-10-17T21:53:57.503Z,88.53
2022-10-17T21:56:28.721Z,88.82
2022-10-17T21:58:56.431Z,89.22
2022-10-17T22:01:29.141Z,88.61
2022-10-17T22:03:58.757Z,88.18
2022-10-17T22:06:44.513Z,88.59
2022-10-17T22:09:16.298Z,87.77
2022-10-17T22:11:47.096Z,87.86
2022-10-17T22:14:15.417Z,87.90
2022-10-17T22:16:45.062Z,87.34
2022-10-17T22:19:13.534Z,87.23
2022-10-17T22:21:40.986Z,86.93
2022-10-17T22:24:11.420Z,87.08
2022-10-17T22:26:39.081Z,87.01
2022-10-17T22:29:07.430Z,86.57
2022-10-17T22:31:35.637Z,86.12
2022-10-17T22:34:04.482Z,86.21
2022-10-17T22:36:33.712Z,86.28
2022-10-17T22:39:00.951Z,86.43
2022-10-17T22:41:28.045Z,86.09
2022-10-17T22:43:55.079Z,85.67
2022-10-17T22:46:22.139Z,86.04
2022-10-17T22:48:49.152Z,85.17
2022-10-17T22:51:16.621Z,85.37
2022-10-17T22:53:43.753Z,84.45
2022-10-17T22:56:19.663Z,83.43
2022-10-17T22:58:47.257Z,83.27
2022-10-17T23:01:20.461Z,83.23
2022-10-17T23:03:48.032Z,82.73
2022-10-17T23:06:15.180Z,82.92
2022-10-17T23:08:44.526Z,82.52
2022-10-17T23:11:11.824Z,81.78
2022-10-17T23:13:42.048Z,81.84
2022-10-17T23:16:09.617Z,81.46
2022-10-17T23:18:39.927Z,81.01
2022-10-17T23:21:07.392Z,80.93
2022-10-17T23:23:34.925Z,81.94
2022-10-17T23:26:13.760Z,81.71
2022-10-17T23:28:42.228Z,81.59
2022-10-17T23:31:20.228Z,81.69
2022-10-17T23:33:49.075Z,81.27
2022-10-17T23:36:18.805Z,81.39
2022-10-17T23:38:47.629Z,81.49
2022-10-17T23:41:15.464Z,80.73
2022-10-17T23:43:43.273Z,81.17
2022-10-17T23:46:10.840Z,80.73
2022-10-17T23:48:38.779Z,80.78
2022-10-17T23:51:07.542Z,79.79
2022-10-17T23:53:38.834Z,80.16
2022-10-17T23:56:10.610Z,81.11
2022-10-17T23:58:38.830Z,80.60
